createdAt,value
2019-02-23T00:00:25.028Z,10.27
2019-02-23T00:05:30.237Z,9.70
2019-02-23T00:10:35.545Z,8.77
2019-02-23T00:15:40.935Z,7.83
2019-02-23T00:20:46.187Z,8.27
2019-02-23T00:25:51.417Z,7.80
2019-02-23T00:30:56.642Z,7.90
2019-02-23T00:36:01.827Z,7.43
2019-02-23T00:41:07.058Z,8.03
2019-02-23T00:46:12.291Z,7.85
2019-02-23T00:51:17.548Z,8.17
2019-02-23T00:56:23.562Z,8.30
2019-02-23T01:01:28.736Z,8.50
2019-02-23T01:06:33.992Z,8.63
2019-02-23T01:11:39.386Z,8.85
2019-02-23T01:16:44.643Z,8.67
2019-02-23T01:21:50.004Z,9.20
2019-02-23T01:26:55.177Z,8.73
2019-02-23T01:32:00.407Z,8.57
2019-02-23T01:42:23.073Z,9.73
2019-02-23T01:47:28.348Z,9.40
2019-02-23T01:52:33.602Z,11.38
2019-02-23T01:57:38.898Z,10.28
2019-02-23T02:02:45.581Z,11.77
2019-02-23T02:07:51.017Z,10.98
2019-02-23T02:12:56.228Z,11.10
2019-02-23T02:18:01.473Z,9.20
2019-02-23T02:23:06.921Z,10.10
2019-02-23T02:28:12.164Z,9.97
2019-02-23T02:33:17.413Z,11.13
2019-02-23T02:38:22.633Z,9.73
2019-02-23T02:43:27.878Z,10.60
2019-02-23T02:48:33.123Z,11.03
2019-02-23T02:53:38.410Z,10.43
2019-02-23T02:58:43.821Z,10.50
2019-02-23T03:03:49.194Z,10.13
2019-02-23T03:08:54.503Z,10.87
2019-02-23T03:13:59.725Z,10.75
2019-02-23T03:19:05.148Z,10.60
2019-02-23T03:24:10.359Z,10.43
2019-02-23T03:29:15.589Z,10.10
2019-02-23T03:34:20.898Z,10.13
2019-02-23T03:39:26.152Z,10.33
2019-02-23T03:44:31.399Z,11.03
2019-02-23T03:49:36.669Z,10.98
2019-02-23T03:54:42.049Z,10.57
2019-02-23T03:59:47.449Z,10.60
2019-02-23T04:04:52.766Z,10.97
2019-02-23T04:09:58.067Z,11.03
2019-02-23T04:15:03.329Z,10.87
2019-02-23T04:20:08.728Z,11.73
2019-02-23T04:25:14.090Z,10.53
2019-02-23T04:30:19.337Z,10.57
2019-02-23T04:35:24.674Z,10.63
2019-02-23T04:40:29.937Z,11.00
2019-02-23T04:45:35.148Z,8.55
2019-02-23T04:50:40.573Z,10.38
2019-02-23T04:55:45.863Z,10.43
2019-02-23T05:00:51.157Z,10.33
2019-02-23T05:05:56.269Z,10.37
2019-02-23T05:11:01.565Z,10.93
2019-02-23T05:16:06.801Z,11.27
2019-02-23T05:21:12.129Z,11.35
2019-02-23T05:26:17.464Z,11.63
2019-02-23T05:31:22.805Z,11.33
2019-02-23T05:36:28.168Z,11.63
2019-02-23T05:41:33.308Z,11.47
2019-02-23T05:46:38.635Z,11.10
2019-02-23T05:51:43.992Z,12.13
2019-02-23T05:56:49.306Z,11.23
2019-02-23T06:01:54.654Z,11.60
2019-02-23T06:07:00.001Z,11.13
2019-02-23T06:12:05.338Z,12.33
2019-02-23T06:17:10.614Z,10.77
2019-02-23T06:22:15.972Z,12.10
2019-02-23T06:27:21.353Z,11.63
2019-02-23T06:32:26.656Z,12.13
2019-02-23T06:37:32.029Z,11.22
2019-02-23T06:42:37.462Z,12.37
2019-02-23T06:47:42.694Z,11.73
2019-02-23T06:52:47.854Z,11.97
2019-02-23T06:57:53.116Z,11.53
2019-02-23T07:02:58.331Z,11.37
2019-02-23T07:08:03.598Z,10.53
2019-02-23T07:13:08.978Z,11.30
2019-02-23T07:18:14.227Z,11.17
2019-02-23T07:23:19.487Z,10.87
2019-02-23T07:28:24.761Z,10.90
2019-02-23T07:33:33.160Z,10.60
2019-02-23T07:38:36.901Z,11.23
2019-02-23T07:43:42.162Z,10.90
2019-02-23T07:48:47.402Z,11.33
2019-02-23T07:53:52.687Z,10.10
2019-02-23T07:58:58.073Z,10.93
2019-02-23T08:04:03.256Z,11.03
2019-02-23T08:09:10.217Z,10.60
2019-02-23T08:14:15.529Z,8.93
2019-02-23T08:19:20.922Z,9.20
2019-02-23T08:24:26.188Z,10.17
2019-02-23T08:29:31.517Z,9.93
2019-02-23T08:34:36.783Z,10.43
2019-02-23T08:39:42.096Z,10.60
2019-02-23T08:44:47.482Z,9.63
2019-02-23T08:49:52.818Z,11.53
2019-02-23T08:54:58.209Z,10.37
2019-02-23T09:00:03.862Z,9.57
2019-02-23T09:05:10.441Z,10.87
2019-02-23T09:10:16.133Z,10.60
2019-02-23T09:15:22.380Z,9.57
2019-02-23T09:20:29.371Z,9.30
2019-02-23T09:25:34.836Z,9.05
2019-02-23T09:30:39.979Z,9.37
2019-02-23T09:35:46.405Z,9.40
2019-02-23T09:40:51.669Z,8.83
2019-02-23T09:45:56.999Z,10.00
2019-02-23T09:51:02.453Z,10.23
2019-02-23T09:56:07.677Z,10.23
2019-02-23T10:01:13.227Z,10.30
2019-02-23T10:06:18.734Z,10.60
2019-02-23T10:11:24.694Z,10.23
2019-02-23T10:16:29.962Z,9.93
2019-02-23T10:21:35.253Z,10.07
2019-02-23T10:26:40.497Z,10.05
2019-02-23T10:31:45.727Z,10.23
2019-02-23T10:36:51.083Z,10.53
2019-02-23T10:41:58.638Z,10.00
2019-02-23T10:47:03.951Z,9.40
2019-02-23T10:52:09.517Z,9.37
2019-02-23T10:57:15.251Z,7.87
2019-02-23T11:02:20.845Z,8.13
2019-02-23T11:07:28.856Z,7.97
2019-02-23T11:12:34.163Z,9.23
2019-02-23T11:17:39.413Z,6.67
2019-02-23T11:22:45.021Z,7.70
2019-02-23T11:27:50.567Z,8.27
2019-02-23T11:32:55.782Z,8.37
2019-02-23T11:38:00.964Z,8.30
2019-02-23T11:43:06.232Z,7.57
2019-02-23T11:48:11.457Z,7.53
2019-02-23T11:53:16.785Z,7.73
2019-02-23T11:58:22.122Z,9.10
2019-02-23T12:03:27.406Z,6.43
2019-02-23T12:08:32.769Z,8.40
2019-02-23T12:13:40.457Z,7.53
2019-02-23T12:18:45.679Z,8.13
2019-02-23T12:23:50.918Z,6.80
2019-02-23T12:28:56.267Z,7.00
2019-02-23T12:34:01.511Z,9.43
2019-02-23T12:39:07.370Z,7.67
2019-02-23T12:44:12.572Z,7.80
2019-02-23T12:49:17.884Z,7.07
2019-02-23T12:54:23.113Z,5.30
2019-02-23T12:59:28.349Z,8.77
2019-02-23T13:04:36.353Z,7.40
2019-02-23T13:09:46.617Z,8.00
2019-02-23T13:14:59.757Z,7.90
2019-02-23T13:20:22.017Z,7.13
2019-02-23T13:37:47.177Z,10.05
2019-02-23T13:43:15.002Z,10.87
2019-02-23T13:48:38.794Z,10.80
2019-02-23T13:54:11.267Z,9.70
2019-02-23T13:59:33.261Z,10.83
2019-02-23T14:05:04.185Z,11.07
2019-02-23T14:10:34.901Z,10.40
2019-02-23T14:15:52.781Z,9.83
2019-02-23T14:21:25.137Z,11.33
2019-02-23T14:26:51.404Z,11.33
2019-02-23T14:32:10.161Z,11.67
2019-02-23T14:37:32.361Z,11.67
2019-02-23T14:42:51.633Z,9.65
2019-02-23T14:48:18.972Z,9.17
2019-02-23T14:53:34.232Z,8.60
2019-02-23T14:58:57.354Z,8.93
2019-02-23T15:04:14.841Z,8.80
2019-02-23T15:09:36.342Z,9.23
2019-02-23T15:15:02.310Z,8.30
2019-02-23T15:20:20.614Z,8.20
2019-02-23T15:25:43.317Z,8.67
2019-02-23T15:31:06.258Z,8.27
2019-02-23T15:36:28.172Z,8.50
2019-02-23T15:41:57.717Z,8.75
2019-02-23T15:47:20.212Z,8.97
2019-02-23T15:52:26.754Z,8.03
2019-02-23T15:57:32.153Z,8.07
2019-02-23T16:02:37.982Z,7.47
2019-02-23T16:07:43.448Z,7.85
2019-02-23T16:12:48.724Z,7.63
2019-02-23T16:17:53.966Z,7.97
2019-02-23T16:22:59.322Z,9.03
2019-02-23T16:28:04.798Z,13.93
2019-02-23T16:33:10.202Z,16.97
2019-02-23T16:38:15.672Z,19.77
2019-02-23T16:43:21.067Z,22.27
2019-02-23T16:48:26.482Z,20.87
2019-02-23T16:53:31.774Z,20.08
2019-02-23T16:58:37.225Z,18.83
2019-02-23T17:03:42.571Z,10.10
2019-02-23T17:08:47.981Z,10.53
2019-02-23T17:13:53.302Z,10.93
2019-02-23T17:24:16.092Z,12.95
2019-02-23T17:29:22.197Z,12.57
2019-02-23T17:34:27.614Z,13.37
2019-02-23T17:39:33.017Z,16.37
2019-02-23T17:44:38.812Z,35.50
2019-02-23T17:49:44.258Z,14.30
2019-02-23T17:54:49.671Z,12.10
2019-02-23T17:59:55.031Z,13.23
2019-02-23T18:05:00.539Z,15.67
2019-02-23T18:10:06.032Z,13.67
2019-02-23T18:15:11.473Z,47.60
2019-02-23T18:20:16.935Z,13.37
2019-02-23T18:25:22.261Z,11.97
2019-02-23T18:30:27.689Z,12.27
2019-02-23T18:35:33.174Z,13.43
2019-02-23T18:40:38.498Z,11.43
2019-02-23T18:45:47.464Z,18.30
2019-02-23T18:50:51.082Z,11.43
2019-02-23T18:55:56.347Z,18.20
2019-02-23T19:01:01.547Z,10.40
2019-02-23T19:06:06.826Z,8.77
2019-02-23T19:11:12.136Z,10.87
2019-02-23T19:16:17.524Z,13.90
2019-02-23T19:21:22.869Z,6.97
2019-02-23T19:26:28.268Z,6.50
2019-02-23T19:31:33.569Z,6.60
2019-02-23T19:36:38.917Z,6.08
2019-02-23T19:41:44.207Z,5.43
2019-02-23T19:46:53.873Z,7.20
2019-02-23T19:51:59.142Z,11.60
2019-02-23T19:57:04.397Z,6.97
2019-02-23T20:02:09.718Z,5.37
2019-02-23T20:07:15.124Z,5.23
2019-02-23T20:12:20.407Z,5.07
2019-02-23T20:17:26.984Z,5.77
2019-02-23T20:22:32.263Z,5.57
2019-02-23T20:27:37.533Z,5.92
2019-02-23T20:32:42.927Z,5.93
2019-02-23T20:37:48.172Z,22.20
2019-02-23T20:42:53.408Z,22.13
2019-02-23T20:47:58.778Z,24.80
2019-02-23T20:53:09.028Z,34.40
2019-02-23T20:58:14.240Z,13.50
2019-02-23T21:03:19.573Z,15.00
2019-02-23T21:08:25.882Z,43.83
2019-02-23T21:13:32.627Z,25.23
2019-02-23T21:18:38.125Z,32.23
2019-02-23T21:23:43.352Z,26.57
2019-02-23T21:28:48.669Z,32.03
2019-02-23T21:33:54.012Z,28.40
2019-02-23T21:38:59.294Z,29.77
2019-02-23T21:44:05.407Z,31.73
2019-02-23T21:49:10.714Z,34.27
2019-02-23T21:54:16.139Z,33.23
2019-02-23T21:59:21.456Z,35.40
2019-02-23T22:04:27.006Z,37.77
2019-02-23T22:09:32.295Z,35.15
2019-02-23T22:14:38.531Z,37.35
2019-02-23T22:19:45.208Z,49.88
2019-02-23T22:24:50.523Z,60.53
2019-02-23T22:29:55.849Z,48.40
2019-02-23T22:35:01.094Z,44.50
2019-02-23T22:40:06.574Z,47.40
2019-02-23T22:45:11.799Z,48.40
2019-02-23T22:50:17.033Z,44.60
2019-02-23T22:55:23.786Z,51.17
2019-02-23T23:00:37.005Z,43.37
2019-02-23T23:05:42.228Z,38.37
2019-02-23T23:10:47.413Z,35.57
2019-02-23T23:15:52.812Z,39.63
2019-02-23T23:20:58.097Z,39.93
2019-02-23T23:26:03.403Z,40.70
2019-02-23T23:31:08.828Z,39.17
2019-02-23T23:36:14.114Z,40.30
2019-02-23T23:41:19.435Z,40.83
2019-02-23T23:46:25.800Z,40.27
2019-02-23T23:51:31.045Z,39.30
2019-02-23T23:56:36.310Z,37.20
